createdAt,value
2023-03-20T00:04:23.461Z,2.6
2023-03-20T00:10:17.505Z,2.3
2023-03-20T00:15:55.808Z,1.7
2023-03-20T00:21:47.734Z,1.4
2023-03-20T00:27:25.832Z,1.8
2023-03-20T00:33:18.297Z,2
2023-03-20T00:38:55.421Z,2.1
2023-03-20T00:50:10.396Z,2.1
2023-03-20T00:55:48.085Z,1.9
2023-03-20T01:01:40.875Z,1.9
2023-03-20T01:07:33.742Z,1.9
2023-03-20T01:13:26.361Z,1.9
2023-03-20T01:18:48.121Z,2
2023-03-20T01:24:40.720Z,2.1
2023-03-20T01:30:18.055Z,1.8
2023-03-20T01:36:11.256Z,1.6
2023-03-20T01:42:03.697Z,1.4
2023-03-20T01:47:56.048Z,1.4
2023-03-20T01:53:48.580Z,1.3
2023-03-20T01:59:24.385Z,1.1
2023-03-20T02:05:17.837Z,0.9
2023-03-20T02:10:55.105Z,0.8
2023-03-20T02:16:16.447Z,0.9
2023-03-20T02:21:54.135Z,0.6
2023-03-20T02:27:46.265Z,0.4
2023-03-20T02:33:39.980Z,0.4
2023-03-20T02:39:18.361Z,0.6
2023-03-20T02:45:11.877Z,0.7
2023-03-20T02:51:04.693Z,1.1
2023-03-20T02:56:42.508Z,0.9
2023-03-20T03:08:12.112Z,0.9
2023-03-20T03:13:34.009Z,0.7
2023-03-20T03:18:57.171Z,0.5
2023-03-20T03:24:58.080Z,0.5
2023-03-20T03:30:35.660Z,0.5
2023-03-20T03:36:29.449Z,0.4
2023-03-20T03:42:05.579Z,0.4
2023-03-20T03:47:43.161Z,0.2
2023-03-20T03:53:04.353Z,0.6
2023-03-20T03:58:57.276Z,0.4
2023-03-20T04:04:37.152Z,0.5
2023-03-20T04:10:29.921Z,0.6
2023-03-20T04:16:10.209Z,0.9
2023-03-20T04:21:46.765Z,0.9
2023-03-20T04:27:24.621Z,0.4
2023-03-20T04:33:20.533Z,0.2
2023-03-20T04:44:51.589Z,0
2023-03-20T04:50:27.723Z,-0.1
2023-03-20T04:56:19.833Z,0.1
2023-03-20T05:01:57.224Z,0.4
2023-03-20T05:07:53.212Z,1
2023-03-20T05:13:46.369Z,1.3
2023-03-20T05:19:24.126Z,1.3
2023-03-20T05:25:16.296Z,1.8
2023-03-20T05:31:08.701Z,2.3
2023-03-20T05:37:04.084Z,2.3
2023-03-20T05:42:57.086Z,2.7
2023-03-20T05:48:34.107Z,3
2023-03-20T05:54:10.845Z,3.4
2023-03-20T06:00:06.878Z,3.7
2023-03-20T06:05:59.553Z,3.6
2023-03-20T06:11:53.971Z,4.2
2023-03-20T06:17:47.116Z,4.7
2023-03-20T06:23:40.329Z,5.3
2023-03-20T06:29:33.778Z,5.4
2023-03-20T06:35:26.700Z,6
2023-03-20T06:41:33.585Z,5.8
2023-03-20T06:47:10.905Z,6.3
2023-03-20T06:53:02.854Z,6.5
2023-03-20T06:58:54.942Z,7.4
2023-03-20T07:04:47.791Z,8.1
2023-03-20T07:10:41.000Z,7.6
2023-03-20T07:16:51.778Z,8
2023-03-20T07:22:45.888Z,8.9
2023-03-20T07:28:50.997Z,9.8
2023-03-20T07:34:44.137Z,10.1
2023-03-20T07:40:38.346Z,10.2
2023-03-20T07:46:31.269Z,10.8
2023-03-20T07:52:26.124Z,11.1
2023-03-20T07:58:19.133Z,11.1
2023-03-20T08:04:12.154Z,11.9
2023-03-20T08:10:07.187Z,12.5
2023-03-20T08:16:00.575Z,12.9
2023-03-20T08:22:09.996Z,12.6
2023-03-20T08:27:46.981Z,13
2023-03-20T08:33:51.316Z,13.3
2023-03-20T08:40:00.708Z,14.6
2023-03-20T08:45:53.590Z,13.9
2023-03-20T08:51:45.858Z,15.1
2023-03-20T08:57:38.730Z,15.4
2023-03-20T09:03:48.486Z,15.3
2023-03-20T09:08:55.399Z,15.9
2023-03-20T09:14:53.892Z,15.1
2023-03-20T09:20:31.924Z,15.2
2023-03-20T09:26:09.667Z,15.4
2023-03-20T09:32:02.733Z,15.9
2023-03-20T09:37:43.197Z,17.6
2023-03-20T09:43:44.507Z,17.2
2023-03-20T09:49:53.962Z,16.4
2023-03-20T09:56:00.533Z,17.8
2023-03-20T10:01:55.960Z,18.6
2023-03-20T10:07:32.966Z,18.4
2023-03-20T10:13:26.305Z,17.6
2023-03-20T10:19:20.072Z,18.1
2023-03-20T10:30:51.164Z,18.6
2023-03-20T10:36:45.037Z,20.4
2023-03-20T10:42:37.558Z,20.4
2023-03-20T10:48:30.875Z,19.9
2023-03-20T10:54:09.066Z,20.9
2023-03-20T10:59:45.572Z,21.7
2023-03-20T11:05:24.421Z,22.1
2023-03-20T11:11:31.381Z,22.6
2023-03-20T11:17:24.063Z,22
2023-03-20T11:23:19.302Z,22.4
2023-03-20T11:29:14.498Z,23.1
2023-03-20T11:35:20.273Z,23.4
2023-03-20T11:41:26.078Z,24.2
2023-03-20T11:47:18.553Z,25.1
2023-03-20T11:53:11.280Z,25
2023-03-20T11:59:08.452Z,24.7
2023-03-20T12:05:02.549Z,24.2
2023-03-20T12:10:55.492Z,22.1
2023-03-20T12:16:48.652Z,25
2023-03-20T12:22:42.120Z,25.8
2023-03-20T12:28:34.436Z,25.2
2023-03-20T12:34:28.431Z,24.4
2023-03-20T12:40:22.093Z,23.2
2023-03-20T12:46:17.513Z,25.2
2023-03-20T12:51:39.335Z,24.7
2023-03-20T12:57:33.119Z,24.5
2023-03-20T13:03:25.473Z,25.3
2023-03-20T13:09:02.210Z,24.8
2023-03-20T13:14:55.170Z,25.4
2023-03-20T13:20:34.882Z,25.5
2023-03-20T13:26:14.862Z,25.4
2023-03-20T13:32:08.679Z,25.3
2023-03-20T13:38:13.287Z,25.1
2023-03-20T13:44:06.367Z,24.4
2023-03-20T13:50:03.949Z,24.4
2023-03-20T13:55:57.049Z,24.2
2023-03-20T14:01:35.239Z,24.1
2023-03-20T14:07:00.478Z,23.8
2023-03-20T14:12:21.943Z,24.2
2023-03-20T14:17:44.905Z,23.9
2023-03-20T14:23:07.080Z,24.3
2023-03-20T14:28:31.834Z,24
2023-03-20T14:34:25.929Z,24
2023-03-20T14:40:03.193Z,23.6
2023-03-20T14:45:55.652Z,23.6
2023-03-20T14:51:51.741Z,22.9
2023-03-20T14:57:55.404Z,22.3
2023-03-20T15:03:35.760Z,22.1
2023-03-20T15:09:28.533Z,22.1
2023-03-20T15:15:23.215Z,21.6
2023-03-20T15:21:16.576Z,21.4
2023-03-20T15:27:11.225Z,21.4
2023-03-20T15:33:04.720Z,21.9
2023-03-20T15:38:57.873Z,22.2
2023-03-20T15:45:04.544Z,21.4
2023-03-20T15:51:19.300Z,20.9
2023-03-20T15:56:52.423Z,20.4
2023-03-20T16:02:30.142Z,20.1
2023-03-20T16:08:26.098Z,19.5
2023-03-20T16:14:18.759Z,19.2
2023-03-20T16:20:12.404Z,19.1
2023-03-20T16:26:04.902Z,18.8
2023-03-20T16:31:59.478Z,18.4
2023-03-20T16:37:52.562Z,18.1
2023-03-20T16:43:45.169Z,18.3
2023-03-20T16:49:38.217Z,17.7
2023-03-20T17:06:30.298Z,16.3
2023-03-20T17:12:08.333Z,17.3
2023-03-20T17:18:01.528Z,17.1
2023-03-20T17:23:55.408Z,16.7
2023-03-20T17:29:48.680Z,16.4
2023-03-20T17:35:27.354Z,16.3
2023-03-20T17:41:04.701Z,15.9
2023-03-20T17:47:13.793Z,16
2023-03-20T17:53:09.309Z,15.8
2023-03-20T17:58:47.284Z,15.5
2023-03-20T18:04:41.790Z,15.1
2023-03-20T18:10:35.934Z,14.9
2023-03-20T18:16:14.566Z,14.8
2023-03-20T18:22:07.902Z,14.8
2023-03-20T18:27:45.474Z,14.3
2023-03-20T18:33:22.156Z,14.3
2023-03-20T18:38:13.725Z,14.1
2023-03-20T18:43:35.716Z,13.8
2023-03-20T18:48:41.243Z,13.1
2023-03-20T18:59:43.973Z,11.8
2023-03-20T19:05:36.868Z,11.3
2023-03-20T19:11:14.487Z,11.3
2023-03-20T19:16:38.608Z,11.1
2023-03-20T19:22:45.294Z,10.9
2023-03-20T19:28:53.414Z,10.9
2023-03-20T19:41:53.303Z,10.9
2023-03-20T19:49:07.284Z,11.3
2023-03-20T19:55:06.571Z,11.5
2023-03-20T20:01:32.362Z,11.6
2023-03-20T20:08:47.787Z,11.7
2023-03-20T20:15:04.116Z,11.8
2023-03-20T20:28:44.729Z,11.6
2023-03-20T20:44:24.393Z,11.8
2023-03-20T20:49:53.848Z,12
2023-03-20T20:56:10.032Z,11.9
2023-03-20T21:02:19.314Z,11.7
2023-03-20T21:08:43.420Z,11.3
2023-03-20T21:15:00.290Z,11.1
2023-03-20T21:20:35.074Z,10.9
2023-03-20T21:27:09.330Z,10.7
2023-03-20T21:33:27.814Z,11
2023-03-20T21:41:01.117Z,10.8
2023-03-20T22:07:42.574Z,9.3
2023-03-20T22:26:49.053Z,9.6
2023-03-20T22:45:51.987Z,9.4
2023-03-20T22:52:57.981Z,9.4
2023-03-20T22:58:57.725Z,9.4
2023-03-20T23:04:58.433Z,9.3
2023-03-20T23:10:55.424Z,9.4
2023-03-20T23:17:03.658Z,9.3
2023-03-20T23:22:47.461Z,9.3
2023-03-20T23:28:46.782Z,9.3
2023-03-20T23:34:58.646Z,9.3
2023-03-20T23:41:07.420Z,9.3
2023-03-20T23:48:17.831Z,9.3
2023-03-20T23:54:49.185Z,9.2
